createdAt,value
2022-10-11T00:01:48.895Z,98.37
2022-10-11T00:04:28.621Z,97.69
2022-10-11T00:07:08.566Z,97.62
2022-10-11T00:09:48.238Z,97.71
2022-10-11T00:12:27.982Z,98.11
2022-10-11T00:15:09.493Z,97.99
2022-10-11T00:17:51.257Z,98.54
2022-10-11T00:20:30.558Z,97.80
2022-10-11T00:23:10.385Z,97.82
2022-10-11T00:25:58.928Z,98.43
2022-10-11T00:28:40.342Z,98.59
2022-10-11T00:31:21.174Z,98.26
2022-10-11T00:34:00.963Z,98.73
2022-10-11T00:36:40.571Z,99.00
2022-10-11T00:39:20.442Z,99.40
2022-10-11T00:42:00.214Z,99.21
2022-10-11T00:44:43.939Z,99.71
2022-10-11T00:47:25.895Z,99.47
2022-10-11T00:50:09.339Z,99.08
2022-10-11T00:52:53.848Z,99.19
2022-10-11T00:55:40.001Z,99.60
2022-10-11T00:58:21.298Z,100.00
2022-10-11T01:01:01.153Z,100.00
2022-10-11T01:03:41.928Z,100.00
2022-10-11T01:06:22.301Z,100.00
2022-10-11T01:09:02.200Z,100.00
2022-10-11T01:11:44.362Z,100.00
2022-10-11T01:14:43.884Z,100.00
2022-10-11T01:17:35.470Z,100.00
2022-10-11T01:20:28.116Z,100.00
2022-10-11T01:23:41.281Z,100.00
2022-10-11T01:26:41.390Z,100.00
2022-10-11T01:29:33.704Z,100.00
2022-10-11T01:32:16.918Z,100.00
2022-10-11T01:35:01.051Z,100.00
2022-10-11T01:37:45.025Z,100.00
2022-10-11T01:40:27.854Z,100.00
2022-10-11T01:43:07.865Z,100.00
2022-10-11T01:45:51.608Z,100.00
2022-10-11T01:48:32.184Z,100.00
2022-10-11T01:51:12.102Z,100.00
2022-10-11T01:54:25.785Z,100.00
2022-10-11T01:57:35.152Z,100.00
2022-10-11T02:00:17.722Z,100.00
2022-10-11T02:03:20.253Z,100.00
2022-10-11T02:06:05.318Z,100.00
2022-10-11T02:08:53.652Z,100.00
2022-10-11T02:11:36.152Z,100.00
2022-10-11T02:14:19.706Z,100.00
2022-10-11T02:17:04.058Z,100.00
2022-10-11T02:19:48.419Z,100.00
2022-10-11T02:22:31.460Z,100.00
2022-10-11T02:25:18.276Z,100.00
2022-10-11T02:28:02.828Z,100.00
2022-10-11T02:30:45.949Z,100.00
2022-10-11T02:33:32.686Z,100.00
2022-10-11T02:36:18.189Z,100.00
2022-10-11T02:39:06.320Z,100.00
2022-10-11T02:41:48.926Z,100.00
2022-10-11T02:44:34.003Z,100.00
2022-10-11T02:47:15.300Z,100.00
2022-10-11T02:49:55.679Z,100.00
2022-10-11T02:52:35.428Z,100.00
2022-10-11T02:55:15.236Z,100.00
2022-10-11T02:57:55.267Z,100.00
2022-10-11T03:00:34.855Z,100.00
2022-10-11T03:03:14.791Z,100.00
2022-10-11T03:05:59.166Z,100.00
2022-10-11T03:08:39.044Z,100.00
2022-10-11T03:11:18.827Z,100.00
2022-10-11T03:13:58.733Z,100.00
2022-10-11T03:16:38.431Z,100.00
2022-10-11T03:19:19.464Z,100.00
2022-10-11T03:21:59.658Z,100.00
2022-10-11T03:24:39.465Z,100.00
2022-10-11T03:27:19.228Z,100.00
2022-10-11T03:30:02.749Z,100.00
2022-10-11T03:32:42.034Z,100.00
2022-10-11T03:35:23.920Z,100.00
2022-10-11T03:38:03.228Z,100.00
2022-10-11T03:40:43.765Z,100.00
2022-10-11T03:43:24.512Z,100.00
2022-10-11T03:46:04.575Z,100.00
2022-10-11T03:48:45.587Z,100.00
2022-10-11T03:51:25.562Z,100.00
2022-10-11T03:54:05.252Z,100.00
2022-10-11T03:56:45.299Z,100.00
2022-10-11T03:59:28.021Z,100.00
2022-10-11T04:02:07.907Z,100.00
2022-10-11T04:04:47.812Z,100.00
2022-10-11T04:07:27.394Z,100.00
2022-10-11T04:10:08.582Z,100.00
2022-10-11T04:12:48.574Z,100.00
2022-10-11T04:15:28.456Z,100.00
2022-10-11T04:18:08.701Z,100.00
2022-10-11T04:20:47.962Z,100.00
2022-10-11T04:23:27.902Z,100.00
2022-10-11T04:26:08.945Z,100.00
2022-10-11T04:28:48.976Z,100.00
2022-10-11T04:31:28.795Z,100.00
2022-10-11T04:34:08.562Z,100.00
2022-10-11T04:36:50.050Z,100.00
2022-10-11T04:39:31.856Z,100.00
2022-10-11T04:42:12.813Z,100.00
2022-10-11T04:44:52.561Z,100.00
2022-10-11T04:47:34.140Z,100.00
2022-10-11T04:50:13.773Z,100.00
2022-10-11T04:52:53.511Z,100.00
2022-10-11T04:55:33.383Z,100.00
2022-10-11T04:58:13.086Z,100.00
2022-10-11T05:00:52.944Z,100.00
2022-10-11T05:03:32.763Z,100.00
2022-10-11T05:06:13.109Z,100.00
2022-10-11T05:08:53.953Z,100.00
2022-10-11T05:11:34.718Z,100.00
2022-10-11T05:14:15.143Z,100.00
2022-10-11T05:16:54.945Z,100.00
2022-10-11T05:19:34.713Z,100.00
2022-10-11T05:22:14.477Z,100.00
2022-10-11T05:24:54.293Z,100.00
2022-10-11T05:27:34.076Z,100.00
2022-10-11T05:30:14.304Z,100.00
2022-10-11T05:32:53.699Z,100.00
2022-10-11T05:35:33.491Z,100.00
2022-10-11T05:38:13.295Z,100.00
2022-10-11T05:40:53.297Z,100.00
2022-10-11T05:43:33.603Z,100.00
2022-10-11T05:46:14.941Z,100.00
2022-10-11T05:48:55.799Z,100.00
2022-10-11T05:51:35.573Z,100.00
2022-10-11T05:54:15.313Z,100.00
2022-10-11T05:56:55.092Z,100.00
2022-10-11T05:59:36.082Z,100.00
2022-10-11T06:02:16.647Z,100.00
2022-10-11T06:04:56.071Z,100.00
2022-10-11T06:07:36.698Z,100.00
2022-10-11T06:10:17.320Z,100.00
2022-10-11T06:13:00.797Z,100.00
2022-10-11T06:16:13.380Z,100.00
2022-10-11T06:19:22.617Z,100.00
2022-10-11T06:22:15.896Z,100.00
2022-10-11T06:25:15.999Z,100.00
2022-10-11T06:28:12.969Z,100.00
2022-10-11T06:31:07.059Z,100.00
2022-10-11T06:34:16.111Z,100.00
2022-10-11T06:37:18.116Z,100.00
2022-10-11T06:40:14.942Z,100.00
2022-10-11T06:43:17.754Z,100.00
2022-10-11T06:46:11.599Z,100.00
2022-10-11T06:49:08.110Z,100.00
2022-10-11T06:52:11.561Z,100.00
2022-10-11T06:55:09.768Z,100.00
2022-10-11T06:58:15.850Z,100.00
2022-10-11T07:01:11.075Z,100.00
2022-10-11T07:04:05.297Z,100.00
2022-10-11T07:07:02.106Z,100.00
2022-10-11T07:09:59.456Z,100.00
2022-10-11T07:13:14.833Z,100.00
2022-10-11T07:16:14.356Z,100.00
2022-10-11T07:19:11.916Z,100.00
2022-10-11T07:22:09.232Z,100.00
2022-10-11T07:25:02.901Z,100.00
2022-10-11T07:27:59.811Z,100.00
2022-10-11T07:30:52.857Z,100.00
2022-10-11T07:33:50.424Z,100.00
2022-10-11T07:36:47.972Z,100.00
2022-10-11T07:39:41.800Z,100.00
2022-10-11T07:42:36.024Z,100.00
2022-10-11T07:45:33.238Z,100.00
2022-10-11T07:48:29.323Z,100.00
2022-10-11T07:51:26.485Z,100.00
2022-10-11T07:54:23.570Z,100.00
2022-10-11T07:57:20.731Z,100.00
2022-10-11T08:00:18.067Z,100.00
2022-10-11T08:03:14.963Z,100.00
2022-10-11T08:06:17.033Z,100.00
2022-10-11T08:09:19.806Z,100.00
2022-10-11T08:12:13.146Z,100.00
2022-10-11T08:15:08.511Z,100.00
2022-10-11T08:18:07.420Z,100.00
2022-10-11T08:21:08.664Z,100.00
2022-10-11T08:24:07.450Z,100.00
2022-10-11T08:27:13.856Z,100.00
2022-10-11T08:30:08.351Z,100.00
2022-10-11T08:33:08.547Z,100.00
2022-10-11T08:36:14.388Z,100.00
2022-10-11T08:39:15.645Z,99.21
2022-10-11T08:42:32.081Z,98.46
2022-10-11T08:45:33.341Z,97.48
2022-10-11T08:48:39.280Z,97.18
2022-10-11T08:51:39.118Z,97.27
2022-10-11T08:54:39.160Z,96.45
2022-10-11T08:57:50.389Z,95.59
2022-10-11T09:00:45.513Z,93.60
2022-10-11T09:03:35.793Z,92.50
2022-10-11T09:06:25.571Z,91.15
2022-10-11T09:09:28.554Z,89.95
2022-10-11T09:12:18.496Z,90.21
2022-10-11T09:15:12.097Z,90.14
2022-10-11T09:18:09.632Z,88.58
2022-10-11T09:21:14.720Z,87.70
2022-10-11T09:24:37.788Z,88.09
2022-10-11T09:27:18.637Z,87.55
2022-10-11T09:29:58.302Z,86.16
2022-10-11T09:32:31.253Z,85.42
2022-10-11T09:35:02.953Z,85.63
2022-10-11T09:37:36.440Z,86.61
2022-10-11T09:40:19.978Z,86.31
2022-10-11T09:42:47.737Z,85.00
2022-10-11T09:45:19.137Z,82.91
2022-10-11T09:47:52.291Z,82.70
2022-10-11T09:50:23.203Z,82.22
2022-10-11T09:52:52.401Z,81.44
2022-10-11T09:55:36.639Z,81.27
2022-10-11T09:58:06.006Z,79.96
2022-10-11T10:00:34.559Z,77.12
2022-10-11T10:03:04.523Z,78.32
2022-10-11T10:05:33.787Z,77.74
2022-10-11T10:08:23.934Z,76.85
2022-10-11T10:11:03.223Z,78.11
2022-10-11T10:13:43.076Z,76.32
2022-10-11T10:16:22.550Z,76.33
2022-10-11T10:18:54.421Z,74.08
2022-10-11T10:21:28.463Z,71.24
2022-10-11T10:23:57.687Z,72.54
2022-10-11T10:26:28.482Z,72.54
2022-10-11T10:29:03.186Z,69.57
2022-10-11T10:31:49.446Z,69.44
2022-10-11T10:34:28.013Z,69.29
2022-10-11T10:37:01.128Z,70.45
2022-10-11T10:39:37.868Z,67.76
2022-10-11T10:42:14.382Z,67.94
2022-10-11T10:44:42.640Z,68.41
2022-10-11T10:47:19.437Z,66.41
2022-10-11T10:49:56.137Z,65.99
2022-10-11T10:52:48.821Z,65.49
2022-10-11T10:55:24.629Z,66.03
2022-10-11T10:58:11.365Z,67.24
2022-10-11T11:00:46.660Z,67.90
2022-10-11T11:03:22.697Z,67.28
2022-10-11T11:06:00.789Z,66.81
2022-10-11T11:08:48.283Z,66.68
2022-10-11T11:11:30.093Z,63.97
2022-10-11T11:14:04.973Z,63.15
2022-10-11T11:16:39.740Z,63.76
2022-10-11T11:19:21.042Z,62.44
2022-10-11T11:22:00.182Z,63.41
2022-10-11T11:24:38.715Z,63.62
2022-10-11T11:27:17.215Z,64.88
2022-10-11T11:29:56.736Z,65.16
2022-10-11T11:32:34.837Z,64.81
2022-10-11T11:35:10.293Z,64.77
2022-10-11T11:37:41.408Z,62.34
2022-10-11T11:40:17.857Z,63.95
2022-10-11T11:42:49.299Z,63.28
2022-10-11T11:45:24.549Z,62.26
2022-10-11T11:47:59.791Z,62.33
2022-10-11T11:50:40.073Z,61.08
2022-10-11T11:53:15.175Z,60.16
2022-10-11T11:55:49.463Z,60.64
2022-10-11T11:58:26.258Z,61.29
2022-10-11T12:01:02.230Z,62.69
2022-10-11T12:03:39.305Z,63.71
2022-10-11T12:06:22.953Z,63.71
2022-10-11T12:09:01.967Z,63.08
2022-10-11T12:11:40.596Z,63.81
2022-10-11T12:14:27.491Z,64.71
2022-10-11T12:17:21.129Z,64.92
2022-10-11T12:20:14.469Z,64.72
2022-10-11T12:23:00.102Z,63.35
2022-10-11T12:25:37.706Z,61.11
2022-10-11T12:28:38.800Z,61.92
2022-10-11T12:31:18.114Z,62.15
2022-10-11T12:34:03.769Z,62.07
2022-10-11T12:36:40.440Z,61.52
2022-10-11T12:39:47.692Z,62.41
2022-10-11T12:42:28.161Z,54.24
2022-10-11T12:45:33.886Z,52.76
2022-10-11T12:48:18.440Z,57.81
2022-10-11T12:50:51.763Z,56.12
2022-10-11T12:53:33.867Z,52.02
2022-10-11T12:56:08.251Z,51.22
2022-10-11T12:58:41.317Z,52.56
2022-10-11T13:01:13.819Z,52.75
2022-10-11T13:03:43.848Z,53.03
2022-10-11T13:06:17.645Z,53.02
2022-10-11T13:08:50.474Z,53.78
2022-10-11T13:11:22.053Z,53.80
2022-10-11T13:13:54.929Z,53.57
2022-10-11T13:16:27.596Z,52.83
2022-10-11T13:18:58.447Z,52.54
2022-10-11T13:21:35.963Z,51.90
2022-10-11T13:24:10.700Z,52.63
2022-10-11T13:26:39.137Z,53.62
2022-10-11T13:29:15.963Z,52.35
2022-10-11T13:31:46.733Z,51.75
2022-10-11T13:34:16.787Z,47.97
2022-10-11T13:36:49.274Z,48.89
2022-10-11T13:39:35.179Z,50.03
2022-10-11T13:42:08.683Z,50.63
2022-10-11T13:44:38.449Z,51.68
2022-10-11T13:47:06.900Z,52.09
2022-10-11T13:49:40.360Z,52.98
2022-10-11T13:52:22.297Z,53.47
2022-10-11T13:55:11.533Z,53.67
2022-10-11T13:57:43.087Z,53.52
2022-10-11T14:00:26.737Z,51.59
2022-10-11T14:02:59.807Z,51.89
2022-10-11T14:05:31.295Z,51.92
2022-10-11T14:08:03.353Z,52.34
2022-10-11T14:10:31.545Z,52.38
2022-10-11T14:13:02.298Z,53.00
2022-10-11T14:15:32.906Z,53.38
2022-10-11T14:18:01.740Z,51.71
2022-10-11T14:20:38.289Z,51.37
2022-10-11T14:23:08.038Z,49.95
2022-10-11T14:25:35.941Z,50.77
2022-10-11T14:28:05.648Z,51.20
2022-10-11T14:30:34.250Z,50.54
2022-10-11T14:33:02.940Z,50.01
2022-10-11T14:35:35.376Z,50.47
2022-10-11T14:38:03.333Z,51.02
2022-10-11T14:40:32.861Z,51.70
2022-10-11T14:43:00.689Z,51.88
2022-10-11T14:45:28.527Z,50.16
2022-10-11T14:47:57.209Z,48.96
2022-10-11T14:50:36.385Z,49.35
2022-10-11T14:53:05.737Z,49.87
2022-10-11T14:55:36.623Z,50.58
2022-10-11T14:58:04.488Z,51.34
2022-10-11T15:00:33.096Z,51.78
2022-10-11T15:03:00.908Z,52.75
2022-10-11T15:05:33.975Z,52.47
2022-10-11T15:08:02.364Z,52.56
2022-10-11T15:10:35.466Z,52.59
2022-10-11T15:13:06.951Z,51.64
2022-10-11T15:15:36.739Z,51.79
2022-10-11T15:18:06.990Z,52.11
2022-10-11T15:20:37.020Z,52.18
2022-10-11T15:23:06.074Z,52.46
2022-10-11T15:25:34.596Z,52.40
2022-10-11T15:28:03.912Z,52.37
2022-10-11T15:30:40.112Z,53.21
2022-10-11T15:33:10.025Z,52.86
2022-10-11T15:35:37.838Z,53.18
2022-10-11T15:38:05.704Z,53.57
2022-10-11T15:40:36.038Z,53.89
2022-10-11T15:43:05.765Z,53.64
2022-10-11T15:45:33.678Z,53.41
2022-10-11T15:48:01.959Z,54.19
2022-10-11T15:50:35.029Z,54.31
2022-10-11T15:53:03.827Z,54.78
2022-10-11T15:55:33.101Z,55.21
2022-10-11T15:58:02.102Z,55.23
2022-10-11T16:00:31.794Z,55.82
2022-10-11T16:03:00.562Z,55.92
2022-10-11T16:05:29.417Z,55.74
2022-10-11T16:07:57.272Z,56.01
2022-10-11T16:10:25.082Z,56.35
2022-10-11T16:12:53.139Z,57.20
2022-10-11T16:15:20.985Z,61.37
2022-10-11T16:17:50.348Z,62.08
2022-10-11T16:20:22.183Z,64.79
2022-10-11T16:22:50.974Z,64.04
2022-10-11T16:25:19.466Z,65.61
2022-10-11T16:27:47.710Z,68.28
2022-10-11T16:30:17.283Z,68.27
2022-10-11T16:32:45.341Z,69.74
2022-10-11T16:35:15.922Z,70.49
2022-10-11T16:37:44.175Z,71.67
2022-10-11T16:40:15.821Z,72.39
2022-10-11T16:42:44.826Z,73.88
2022-10-11T16:45:13.348Z,75.21
2022-10-11T16:47:41.863Z,75.46
2022-10-11T16:50:10.665Z,77.09
2022-10-11T16:52:39.955Z,79.28
2022-10-11T16:55:08.344Z,79.38
2022-10-11T16:57:37.748Z,80.05
2022-10-11T17:00:07.354Z,81.00
2022-10-11T17:02:36.137Z,81.56
2022-10-11T17:05:04.432Z,83.14
2022-10-11T17:07:32.570Z,83.67
2022-10-11T17:10:01.960Z,84.64
2022-10-11T17:12:31.878Z,85.72
2022-10-11T17:14:59.760Z,86.74
2022-10-11T17:17:28.060Z,87.54
2022-10-11T17:19:55.897Z,88.16
2022-10-11T17:22:24.067Z,88.13
2022-10-11T17:24:51.861Z,88.70
2022-10-11T17:27:21.098Z,89.17
2022-10-11T17:29:48.949Z,90.24
2022-10-11T17:32:16.775Z,90.87
2022-10-11T17:34:44.556Z,91.24
2022-10-11T17:37:12.577Z,91.90
2022-10-11T17:39:40.417Z,92.21
2022-10-11T17:42:08.562Z,92.89
2022-10-11T17:44:38.099Z,94.00
2022-10-11T17:47:06.041Z,93.89
2022-10-11T17:49:33.985Z,95.04
2022-10-11T17:52:01.825Z,95.75
2022-10-11T17:54:29.620Z,96.23
2022-10-11T17:56:57.433Z,96.82
2022-10-11T17:59:27.485Z,97.04
2022-10-11T18:01:56.756Z,97.78
2022-10-11T18:04:26.963Z,98.61
2022-10-11T18:06:54.969Z,99.03
2022-10-11T18:09:23.794Z,99.77
2022-10-11T18:11:51.989Z,99.78
2022-10-11T18:14:19.982Z,100.00
2022-10-11T18:16:47.887Z,99.47
2022-10-11T18:19:17.215Z,100.00
2022-10-11T18:21:45.059Z,100.00
2022-10-11T18:24:15.309Z,100.00
2022-10-11T18:26:43.560Z,100.00
2022-10-11T18:29:12.484Z,100.00
2022-10-11T18:31:41.013Z,100.00
2022-10-11T18:34:14.726Z,100.00
2022-10-11T18:36:44.103Z,100.00
2022-10-11T18:39:14.648Z,100.00
2022-10-11T18:41:44.523Z,100.00
2022-10-11T18:44:15.215Z,100.00
2022-10-11T18:46:43.904Z,100.00
2022-10-11T18:49:12.703Z,100.00
2022-10-11T18:51:42.113Z,100.00
2022-10-11T18:54:16.705Z,100.00
2022-10-11T18:56:48.171Z,100.00
2022-10-11T18:59:16.329Z,100.00
2022-10-11T19:01:45.492Z,100.00
2022-10-11T19:04:16.793Z,100.00
2022-10-11T19:06:48.257Z,100.00
2022-10-11T19:09:21.719Z,100.00
2022-10-11T19:11:50.871Z,100.00
2022-10-11T19:14:21.933Z,100.00
2022-10-11T19:16:51.789Z,100.00
2022-10-11T19:19:21.306Z,100.00
2022-10-11T19:21:49.633Z,100.00
2022-10-11T19:24:21.311Z,100.00
2022-10-11T19:26:52.994Z,100.00
2022-10-11T19:29:23.579Z,100.00
2022-10-11T19:31:53.973Z,100.00
2022-10-11T19:34:23.110Z,100.00
2022-10-11T19:36:53.350Z,100.00
2022-10-11T19:39:24.614Z,100.00
2022-10-11T19:41:52.953Z,100.00
2022-10-11T19:44:21.520Z,100.00
2022-10-11T19:46:52.294Z,100.00
2022-10-11T19:49:22.750Z,100.00
2022-10-11T19:51:51.727Z,100.00
2022-10-11T19:54:19.971Z,100.00
2022-10-11T19:56:49.640Z,100.00
2022-10-11T19:59:17.885Z,100.00
2022-10-11T20:01:52.067Z,100.00
2022-10-11T20:07:09.384Z,100.00
2022-10-11T20:09:37.660Z,100.00
2022-10-11T20:12:07.770Z,100.00
2022-10-11T20:14:35.733Z,100.00
2022-10-11T20:17:03.754Z,100.00
2022-10-11T20:19:31.911Z,100.00
2022-10-11T20:22:00.486Z,100.00
2022-10-11T20:24:32.525Z,100.00
2022-10-11T20:27:01.493Z,100.00
2022-10-11T20:29:30.815Z,100.00
2022-10-11T20:31:58.885Z,100.00
2022-10-11T20:34:27.619Z,100.00
2022-10-11T20:36:55.566Z,100.00
2022-10-11T20:39:23.685Z,100.00
2022-10-11T20:41:51.582Z,100.00
2022-10-11T20:44:19.515Z,100.00
2022-10-11T20:46:48.752Z,100.00
2022-10-11T20:49:16.558Z,100.00
2022-10-11T20:51:44.451Z,100.00
2022-10-11T20:54:12.624Z,100.00
2022-10-11T20:56:40.820Z,100.00
2022-10-11T20:59:09.144Z,100.00
2022-10-11T21:01:38.850Z,100.00
2022-10-11T21:04:11.315Z,100.00
2022-10-11T21:06:39.307Z,100.00
2022-10-11T21:09:08.522Z,100.00
2022-10-11T21:11:38.120Z,100.00
2022-10-11T21:14:07.160Z,100.00
2022-10-11T21:16:37.509Z,100.00
2022-10-11T21:19:06.173Z,100.00
2022-10-11T21:21:35.363Z,100.00
2022-10-11T21:24:03.783Z,100.00
2022-10-11T21:26:32.148Z,100.00
2022-10-11T21:29:00.202Z,100.00
2022-10-11T21:31:33.616Z,100.00
2022-10-11T21:34:02.171Z,100.00
2022-10-11T21:36:30.076Z,100.00
2022-10-11T21:38:59.142Z,100.00
2022-10-11T21:41:29.826Z,100.00
2022-10-11T21:43:58.031Z,100.00
2022-10-11T21:46:47.543Z,100.00
2022-10-11T21:49:15.410Z,100.00
2022-10-11T21:51:43.461Z,100.00
2022-10-11T21:54:12.652Z,100.00
2022-10-11T21:56:40.437Z,100.00
2022-10-11T21:59:11.247Z,100.00
2022-10-11T22:01:40.678Z,100.00
2022-10-11T22:04:08.619Z,100.00
2022-10-11T22:06:36.947Z,100.00
2022-10-11T22:09:05.562Z,100.00
2022-10-11T22:11:35.112Z,100.00
2022-10-11T22:14:02.862Z,100.00
2022-10-11T22:16:30.769Z,100.00
2022-10-11T22:18:59.925Z,100.00
2022-10-11T22:21:27.862Z,100.00
2022-10-11T22:23:55.895Z,100.00
2022-10-11T22:26:26.944Z,100.00
2022-10-11T22:28:56.138Z,100.00
2022-10-11T22:31:24.568Z,100.00
2022-10-11T22:33:54.735Z,100.00
2022-10-11T22:36:24.093Z,100.00
2022-10-11T22:38:53.048Z,100.00
2022-10-11T22:41:21.025Z,100.00
2022-10-11T22:43:48.827Z,100.00
2022-10-11T22:46:18.156Z,100.00
2022-10-11T22:48:45.965Z,100.00
2022-10-11T22:51:14.357Z,100.00
2022-10-11T22:53:42.241Z,100.00
2022-10-11T22:56:11.184Z,100.00
2022-10-11T22:58:38.942Z,100.00
2022-10-11T23:01:08.270Z,100.00
2022-10-11T23:03:37.557Z,100.00
2022-10-11T23:06:05.637Z,100.00
2022-10-11T23:08:33.486Z,100.00
2022-10-11T23:11:03.936Z,100.00
2022-10-11T23:13:31.726Z,100.00
2022-10-11T23:15:59.545Z,100.00
2022-10-11T23:18:27.330Z,100.00
2022-10-11T23:20:56.429Z,100.00
2022-10-11T23:23:24.163Z,100.00
2022-10-11T23:26:01.379Z,100.00
2022-10-11T23:28:29.308Z,100.00
2022-10-11T23:30:57.177Z,100.00
2022-10-11T23:33:25.145Z,100.00
2022-10-11T23:35:52.908Z,100.00
2022-10-11T23:38:22.012Z,100.00
2022-10-11T23:40:49.737Z,100.00
2022-10-11T23:43:17.478Z,100.00
2022-10-11T23:45:45.281Z,100.00
2022-10-11T23:48:13.208Z,100.00
2022-10-11T23:50:40.941Z,100.00
2022-10-11T23:53:08.673Z,100.00
2022-10-11T23:55:37.734Z,100.00
2022-10-11T23:58:05.487Z,100.00
